createdAt,value
2018-05-07T00:00:50.914Z,76.92
2018-05-07T00:01:50.987Z,78.64
2018-05-07T00:02:51.090Z,78.36
2018-05-07T00:03:51.116Z,79.02
2018-05-07T00:04:51.172Z,77.94
2018-05-07T00:05:51.324Z,78.45
2018-05-07T00:06:51.299Z,77.84
2018-05-07T00:07:51.444Z,77.78
2018-05-07T00:08:51.439Z,78.99
2018-05-07T00:09:51.507Z,78.41
2018-05-07T00:10:51.559Z,78.22
2018-05-07T00:11:51.651Z,79.27
2018-05-07T00:12:52.291Z,79.75
2018-05-07T00:13:51.775Z,78.60
2018-05-07T00:14:51.831Z,78.60
2018-05-07T00:15:51.902Z,79.46
2018-05-07T00:16:51.951Z,80.41
2018-05-07T00:17:52.052Z,80.41
2018-05-07T00:18:52.099Z,80.32
2018-05-07T00:19:52.159Z,79.85
2018-05-07T00:20:52.208Z,80.04
2018-05-07T00:21:52.279Z,80.41
2018-05-07T00:22:52.512Z,81.37
2018-05-07T00:23:52.404Z,79.85
2018-05-07T00:24:52.478Z,80.38
2018-05-07T00:25:52.553Z,79.94
2018-05-07T00:26:52.616Z,81.71
2018-05-07T00:27:52.676Z,82.19
2018-05-07T00:28:52.760Z,82.00
2018-05-07T00:29:52.800Z,81.71
2018-05-07T00:30:52.863Z,82.00
2018-05-07T00:31:52.936Z,81.14
2018-05-07T00:32:53.014Z,83.24
2018-05-07T00:33:53.080Z,82.38
2018-05-07T00:34:53.132Z,84.10
2018-05-07T00:35:53.192Z,83.34
2018-05-07T00:36:53.260Z,82.86
2018-05-07T00:37:53.366Z,83.43
2018-05-07T00:38:53.396Z,84.29
2018-05-07T00:39:53.448Z,82.76
2018-05-07T00:40:53.520Z,83.43
2018-05-07T00:41:53.588Z,84.20
2018-05-07T00:42:53.656Z,83.81
2018-05-07T00:43:53.724Z,84.86
2018-05-07T00:44:53.772Z,84.63
2018-05-07T00:45:53.841Z,85.53
2018-05-07T00:46:53.896Z,85.77
2018-05-07T00:47:53.973Z,84.77
2018-05-07T00:48:54.065Z,84.82
2018-05-07T00:49:54.096Z,84.58
2018-05-07T00:50:54.169Z,83.91
2018-05-07T00:51:54.224Z,85.05
2018-05-07T00:52:54.304Z,84.39
2018-05-07T00:53:54.372Z,83.62
2018-05-07T00:54:54.425Z,84.06
2018-05-07T00:55:54.484Z,84.06
2018-05-07T00:56:54.550Z,85.11
2018-05-07T00:57:54.621Z,85.01
2018-05-07T00:58:54.701Z,85.87
2018-05-07T00:59:54.749Z,85.77
2018-05-07T01:00:54.805Z,85.01
2018-05-07T01:01:54.873Z,85.01
2018-05-07T01:02:54.937Z,84.25
2018-05-07T01:03:55.013Z,85.21
2018-05-07T01:04:55.077Z,86.25
2018-05-07T01:05:55.130Z,85.11
2018-05-07T01:06:55.200Z,85.11
2018-05-07T01:07:55.262Z,85.30
2018-05-07T01:08:55.333Z,84.72
2018-05-07T01:09:55.393Z,84.82
2018-05-07T01:10:55.453Z,84.82
2018-05-07T01:11:55.520Z,85.30
2018-05-07T01:12:55.581Z,85.01
2018-05-07T01:13:55.658Z,86.63
2018-05-07T01:14:55.722Z,86.73
2018-05-07T01:15:55.778Z,86.35
2018-05-07T01:16:55.842Z,86.54
2018-05-07T01:17:55.906Z,87.30
2018-05-07T01:18:55.978Z,87.21
2018-05-07T01:19:56.042Z,86.44
2018-05-07T01:20:56.102Z,86.25
2018-05-07T01:21:56.166Z,86.44
2018-05-07T01:22:56.230Z,86.35
2018-05-07T01:23:56.310Z,86.16
2018-05-07T01:24:56.358Z,86.73
2018-05-07T01:25:56.422Z,86.92
2018-05-07T01:26:56.496Z,86.73
2018-05-07T01:27:56.554Z,87.59
2018-05-07T01:28:56.622Z,88.83
2018-05-07T01:29:56.686Z,89.02
2018-05-07T01:30:56.746Z,89.12
2018-05-07T01:31:56.811Z,88.64
2018-05-07T01:32:56.875Z,87.45
2018-05-07T01:33:56.950Z,86.49
2018-05-07T01:34:57.010Z,87.02
2018-05-07T01:35:57.067Z,87.68
2018-05-07T01:36:57.135Z,88.12
2018-05-07T01:37:57.198Z,90.22
2018-05-07T01:38:57.451Z,89.83
2018-05-07T01:39:57.327Z,90.22
2018-05-07T01:40:57.391Z,90.69
2018-05-07T01:41:57.456Z,91.17
2018-05-07T01:42:57.519Z,90.98
2018-05-07T01:43:57.641Z,90.79
2018-05-07T01:44:57.656Z,90.69
2018-05-07T01:45:57.715Z,90.41
2018-05-07T01:46:57.783Z,89.64
2018-05-07T01:47:57.848Z,91.36
2018-05-07T01:48:57.911Z,91.74
2018-05-07T01:49:57.980Z,91.17
2018-05-07T01:50:58.036Z,91.46
2018-05-07T01:51:58.104Z,91.93
2018-05-07T01:52:58.169Z,91.46
2018-05-07T01:53:58.392Z,91.27
2018-05-07T01:54:58.296Z,91.27
2018-05-07T01:55:58.359Z,91.64
2018-05-07T01:56:58.423Z,91.17
2018-05-07T01:57:58.488Z,91.27
2018-05-07T01:58:58.560Z,91.93
2018-05-07T01:59:58.620Z,91.55
2018-05-07T02:00:58.680Z,91.07
2018-05-07T02:01:58.744Z,91.55
2018-05-07T02:02:58.808Z,90.69
2018-05-07T02:03:58.880Z,91.27
2018-05-07T02:04:58.944Z,91.17
2018-05-07T02:05:59.005Z,90.22
2018-05-07T02:06:59.072Z,90.03
2018-05-07T02:07:59.132Z,90.41
2018-05-07T02:08:59.216Z,91.46
2018-05-07T02:09:59.260Z,91.27
2018-05-07T02:10:59.329Z,91.07
2018-05-07T02:11:59.388Z,91.17
2018-05-07T02:12:59.453Z,90.88
2018-05-07T02:13:59.524Z,91.46
2018-05-07T02:14:59.589Z,91.83
2018-05-07T02:15:59.645Z,91.46
2018-05-07T02:16:59.708Z,91.07
2018-05-07T02:17:59.776Z,90.93
2018-05-07T02:18:59.844Z,91.27
2018-05-07T02:19:59.909Z,91.22
2018-05-07T02:20:59.965Z,91.79
2018-05-07T02:22:00.033Z,91.13
2018-05-07T02:23:00.097Z,89.69
2018-05-07T02:24:00.173Z,90.17
2018-05-07T02:25:00.224Z,91.41
2018-05-07T02:26:00.320Z,90.84
2018-05-07T02:27:00.353Z,90.08
2018-05-07T02:28:00.417Z,90.93
2018-05-07T02:29:00.489Z,91.22
2018-05-07T02:30:00.555Z,90.36
2018-05-07T02:31:00.609Z,89.98
2018-05-07T02:32:00.673Z,89.50
2018-05-07T02:33:00.737Z,91.03
2018-05-07T02:34:00.809Z,90.45
2018-05-07T02:35:00.877Z,90.45
2018-05-07T02:36:00.929Z,91.22
2018-05-07T02:37:01.007Z,91.31
2018-05-07T02:38:01.058Z,89.60
2018-05-07T02:39:01.342Z,91.13
2018-05-07T02:40:01.186Z,92.36
2018-05-07T02:41:01.249Z,91.98
2018-05-07T02:42:01.318Z,91.69
2018-05-07T02:43:01.382Z,91.69
2018-05-07T02:44:01.450Z,92.17
2018-05-07T02:45:01.514Z,91.41
2018-05-07T02:46:01.574Z,91.13
2018-05-07T02:47:01.642Z,91.41
2018-05-07T02:48:01.705Z,91.03
2018-05-07T02:49:01.769Z,91.50
2018-05-07T02:50:01.839Z,91.22
2018-05-07T02:51:01.896Z,91.69
2018-05-07T02:52:01.964Z,91.69
2018-05-07T02:53:02.022Z,92.55
2018-05-07T02:54:02.198Z,92.55
2018-05-07T02:55:02.153Z,92.27
2018-05-07T02:56:02.215Z,92.17
2018-05-07T02:57:02.278Z,91.50
2018-05-07T02:58:02.342Z,91.60
2018-05-07T02:59:02.415Z,92.93
2018-05-07T03:00:02.475Z,92.27
2018-05-07T03:01:02.534Z,92.65
2018-05-07T03:02:02.601Z,92.17
2018-05-07T03:03:02.670Z,92.74
2018-05-07T03:04:02.731Z,93.12
2018-05-07T03:05:02.794Z,92.27
2018-05-07T03:06:02.855Z,92.17
2018-05-07T03:07:02.918Z,92.69
2018-05-07T03:08:02.982Z,92.22
2018-05-07T03:09:03.050Z,91.94
2018-05-07T03:10:03.115Z,92.13
2018-05-07T03:11:03.175Z,93.12
2018-05-07T03:12:03.252Z,92.32
2018-05-07T03:13:03.306Z,91.84
2018-05-07T03:14:03.518Z,92.50
2018-05-07T03:15:03.438Z,93.46
2018-05-07T03:16:03.494Z,93.46
2018-05-07T03:17:03.562Z,92.89
2018-05-07T03:18:03.622Z,92.50
2018-05-07T03:19:03.690Z,93.08
2018-05-07T03:20:03.759Z,93.08
2018-05-07T03:21:03.815Z,93.27
2018-05-07T03:22:03.879Z,92.60
2018-05-07T03:23:03.943Z,92.41
2018-05-07T03:24:04.011Z,92.79
2018-05-07T03:25:04.075Z,92.98
2018-05-07T03:26:04.134Z,93.17
2018-05-07T03:27:04.423Z,93.08
2018-05-07T03:28:04.258Z,94.03
2018-05-07T03:29:04.481Z,94.51
2018-05-07T03:30:04.387Z,93.84
2018-05-07T03:31:04.455Z,93.93
2018-05-07T03:32:04.515Z,94.41
2018-05-07T03:33:04.582Z,94.13
2018-05-07T03:34:04.651Z,94.22
2018-05-07T03:35:04.807Z,94.13
2018-05-07T03:36:04.771Z,95.36
2018-05-07T03:37:04.835Z,94.51
2018-05-07T03:38:04.899Z,93.84
2018-05-07T03:39:04.973Z,93.65
2018-05-07T03:40:05.036Z,95.84
2018-05-07T03:41:05.092Z,95.46
2018-05-07T03:42:05.156Z,95.08
2018-05-07T03:43:05.219Z,94.22
2018-05-07T03:44:05.288Z,93.37
2018-05-07T03:45:05.368Z,93.55
2018-05-07T03:46:05.411Z,93.37
2018-05-07T03:47:05.475Z,93.37
2018-05-07T03:48:05.540Z,93.65
2018-05-07T03:49:05.604Z,95.46
2018-05-07T03:50:05.676Z,95.08
2018-05-07T03:51:05.740Z,93.55
2018-05-07T03:52:05.792Z,93.17
2018-05-07T03:53:05.856Z,93.27
2018-05-07T03:54:05.920Z,94.98
2018-05-07T03:55:05.992Z,95.08
2018-05-07T03:56:06.056Z,94.22
2018-05-07T03:57:06.112Z,94.41
2018-05-07T03:58:06.176Z,93.74
2018-05-07T03:59:06.240Z,93.55
2018-05-07T04:00:06.304Z,93.93
2018-05-07T04:01:06.520Z,93.65
2018-05-07T04:02:06.433Z,94.13
2018-05-07T04:03:06.496Z,95.17
2018-05-07T04:04:06.565Z,95.27
2018-05-07T04:05:06.624Z,96.32
2018-05-07T04:06:06.693Z,96.51
2018-05-07T04:07:06.765Z,94.98
2018-05-07T04:08:06.813Z,95.46
2018-05-07T04:09:06.876Z,96.03
2018-05-07T04:10:06.944Z,95.27
2018-05-07T04:11:07.014Z,96.32
2018-05-07T04:12:07.077Z,97.08
2018-05-07T04:13:07.180Z,96.89
2018-05-07T04:14:07.197Z,96.41
2018-05-07T04:15:07.266Z,94.89
2018-05-07T04:16:07.481Z,96.32
2018-05-07T04:17:07.389Z,96.70
2018-05-07T04:18:07.453Z,97.08
2018-05-07T04:19:07.517Z,96.12
2018-05-07T04:20:07.581Z,96.32
2018-05-07T04:21:07.649Z,95.94
2018-05-07T04:22:07.750Z,96.22
2018-05-07T04:23:07.773Z,95.84
2018-05-07T04:24:07.834Z,94.98
2018-05-07T04:25:07.897Z,94.22
2018-05-07T04:26:07.969Z,93.55
2018-05-07T04:27:08.033Z,93.65
2018-05-07T04:28:08.089Z,92.98
2018-05-07T04:29:08.153Z,92.89
2018-05-07T04:30:08.218Z,92.79
2018-05-07T04:31:08.434Z,93.84
2018-05-07T04:32:08.350Z,93.17
2018-05-07T04:33:08.410Z,93.27
2018-05-07T04:34:08.473Z,92.98
2018-05-07T04:35:08.540Z,92.98
2018-05-07T04:36:08.605Z,93.46
2018-05-07T04:37:08.669Z,93.37
2018-05-07T04:38:08.730Z,93.65
2018-05-07T04:39:08.798Z,93.65
2018-05-07T04:40:08.854Z,93.65
2018-05-07T04:41:08.929Z,93.74
2018-05-07T04:42:09.206Z,93.55
2018-05-07T04:43:09.074Z,92.98
2018-05-07T04:44:09.110Z,93.08
2018-05-07T04:45:09.174Z,92.50
2018-05-07T04:46:09.298Z,93.74
2018-05-07T04:47:09.302Z,93.55
2018-05-07T04:48:09.366Z,93.46
2018-05-07T04:49:09.434Z,95.17
2018-05-07T04:50:09.494Z,94.22
2018-05-07T04:51:09.566Z,93.93
2018-05-07T04:52:09.630Z,93.17
2018-05-07T04:53:09.686Z,92.79
2018-05-07T04:54:09.754Z,92.27
2018-05-07T04:55:09.846Z,92.93
2018-05-07T04:56:09.891Z,93.12
2018-05-07T04:57:09.947Z,92.46
2018-05-07T04:58:10.006Z,92.46
2018-05-07T04:59:10.066Z,92.17
2018-05-07T05:00:10.130Z,91.60
2018-05-07T05:01:10.442Z,91.22
2018-05-07T05:02:10.259Z,91.98
2018-05-07T05:03:10.323Z,91.98
2018-05-07T05:04:10.386Z,90.93
2018-05-07T05:05:10.451Z,92.17
2018-05-07T05:06:10.530Z,92.65
2018-05-07T05:07:10.643Z,92.08
2018-05-07T05:08:10.643Z,92.65
2018-05-07T05:09:10.711Z,93.79
2018-05-07T05:10:10.772Z,94.08
2018-05-07T05:11:10.843Z,94.03
2018-05-07T05:12:10.927Z,94.60
2018-05-07T05:13:10.963Z,95.08
2018-05-07T05:14:11.031Z,94.41
2018-05-07T05:15:11.095Z,94.03
2018-05-07T05:16:11.267Z,93.36
2018-05-07T05:17:11.219Z,93.65
2018-05-07T05:18:11.283Z,93.08
2018-05-07T05:19:11.385Z,92.32
2018-05-07T05:20:11.412Z,91.21
2018-05-07T05:21:11.498Z,90.83
2018-05-07T05:22:11.556Z,90.73
2018-05-07T05:23:11.603Z,91.31
2018-05-07T05:24:11.668Z,91.21
2018-05-07T05:25:11.731Z,89.69
2018-05-07T05:26:11.799Z,89.78
2018-05-07T05:27:11.864Z,90.45
2018-05-07T05:28:11.923Z,90.07
2018-05-07T05:29:11.988Z,90.36
2018-05-07T05:30:12.052Z,88.11
2018-05-07T05:31:12.160Z,88.20
2018-05-07T05:32:12.176Z,87.54
2018-05-07T05:33:12.256Z,87.44
2018-05-07T05:34:12.312Z,87.25
2018-05-07T05:35:12.372Z,87.35
2018-05-07T05:36:12.448Z,86.49
2018-05-07T05:37:12.560Z,86.10
2018-05-07T05:38:12.569Z,85.72
2018-05-07T05:39:12.633Z,85.72
2018-05-07T05:40:12.692Z,85.96
2018-05-07T05:41:12.768Z,86.05
2018-05-07T05:42:12.825Z,87.29
2018-05-07T05:43:12.889Z,85.67
2018-05-07T05:44:12.953Z,84.43
2018-05-07T05:45:13.012Z,84.33
2018-05-07T05:46:13.076Z,84.05
2018-05-07T05:47:13.301Z,84.23
2018-05-07T05:48:13.213Z,84.81
2018-05-07T05:49:13.273Z,84.19
2018-05-07T05:50:13.385Z,81.99
2018-05-07T05:51:13.435Z,81.60
2018-05-07T05:52:13.466Z,81.79
2018-05-07T05:53:13.545Z,79.88
2018-05-07T05:54:13.593Z,79.83
2018-05-07T05:55:13.653Z,79.35
2018-05-07T05:56:13.794Z,79.44
2018-05-07T05:57:13.797Z,79.83
2018-05-07T05:58:13.866Z,78.49
2018-05-07T05:59:13.918Z,77.82
2018-05-07T06:00:13.981Z,77.82
2018-05-07T06:01:14.051Z,78.63
2018-05-07T06:02:14.143Z,78.39
2018-05-07T06:03:14.169Z,77.28
2018-05-07T06:04:14.241Z,77.09
2018-05-07T06:05:14.305Z,76.81
2018-05-07T06:06:14.366Z,75.76
2018-05-07T06:07:14.441Z,76.42
2018-05-07T06:08:14.501Z,75.37
2018-05-07T06:09:14.558Z,74.13
2018-05-07T06:10:14.628Z,74.04
2018-05-07T06:11:14.686Z,73.84
2018-05-07T06:12:14.762Z,73.08
2018-05-07T06:13:14.829Z,73.40
2018-05-07T06:14:14.885Z,72.73
2018-05-07T06:15:14.957Z,72.73
2018-05-07T06:16:15.014Z,72.63
2018-05-07T06:17:15.118Z,73.59
2018-05-07T06:18:15.146Z,73.40
2018-05-07T06:19:15.210Z,73.02
2018-05-07T06:20:15.274Z,73.79
2018-05-07T06:21:15.422Z,71.68
2018-05-07T06:22:15.410Z,72.16
2018-05-07T06:23:15.474Z,72.83
2018-05-07T06:24:15.531Z,72.29
2018-05-07T06:25:15.598Z,72.77
2018-05-07T06:26:15.663Z,71.81
2018-05-07T06:27:15.752Z,72.67
2018-05-07T06:28:15.799Z,72.00
2018-05-07T06:29:15.855Z,70.76
2018-05-07T06:30:15.928Z,70.56
2018-05-07T06:31:15.987Z,71.33
2018-05-07T06:32:16.076Z,70.31
2018-05-07T06:33:16.131Z,71.04
2018-05-07T06:34:16.186Z,70.31
2018-05-07T06:35:16.248Z,69.35
2018-05-07T06:36:16.311Z,68.52
2018-05-07T06:37:16.387Z,67.69
2018-05-07T06:38:16.447Z,65.08
2018-05-07T06:39:16.507Z,61.14
2018-05-07T06:40:16.575Z,57.28
2018-05-07T06:41:16.644Z,54.83
2018-05-07T06:42:16.715Z,52.95
2018-05-07T06:43:16.787Z,51.63
2018-05-07T06:44:16.848Z,48.30
2018-05-07T06:45:16.919Z,48.35
2018-05-07T06:46:16.987Z,47.79
2018-05-07T06:47:17.068Z,45.78
2018-05-07T06:48:17.140Z,43.50
2018-05-07T06:49:17.203Z,42.55
2018-05-07T06:50:17.275Z,42.17
2018-05-07T06:51:17.354Z,41.89
2018-05-07T06:52:17.444Z,42.02
2018-05-07T06:53:17.503Z,39.61
2018-05-07T06:54:17.572Z,38.67
2018-05-07T06:55:17.648Z,38.09
2018-05-07T06:56:17.748Z,35.58
2018-05-07T06:57:17.816Z,37.06
2018-05-07T06:58:17.888Z,35.50
2018-05-07T06:59:17.957Z,34.94
2018-05-07T07:00:18.029Z,33.67
2018-05-07T07:01:18.104Z,33.77
2018-05-07T07:02:18.317Z,34.74
2018-05-07T07:03:18.264Z,33.98
2018-05-07T07:04:18.341Z,33.98
2018-05-07T07:05:18.421Z,32.82
2018-05-07T07:06:18.500Z,32.05
2018-05-07T07:07:18.590Z,32.63
2018-05-07T07:08:18.849Z,31.84
2018-05-07T07:09:18.737Z,32.15
2018-05-07T07:10:18.817Z,32.53
2018-05-07T07:11:18.925Z,32.75
2018-05-07T07:12:20.909Z,31.20
2018-05-07T07:13:20.877Z,30.42
2018-05-07T07:14:19.173Z,30.24
2018-05-07T07:15:19.225Z,30.93
2018-05-07T07:16:19.306Z,29.57
2018-05-07T07:17:19.384Z,29.57
2018-05-07T07:18:19.497Z,29.98
2018-05-07T07:19:19.544Z,30.27
2018-05-07T07:20:19.625Z,28.82
2018-05-07T07:21:19.753Z,28.53
2018-05-07T07:22:19.805Z,27.27
2018-05-07T07:23:19.985Z,27.09
2018-05-07T07:24:19.973Z,26.99
2018-05-07T07:25:20.061Z,26.50
2018-05-07T07:26:20.149Z,26.61
2018-05-07T07:27:20.243Z,26.21
2018-05-07T07:28:20.366Z,27.28
2018-05-07T07:29:20.593Z,27.39
2018-05-07T07:30:20.459Z,27.10
2018-05-07T07:31:20.565Z,26.14
2018-05-07T07:32:20.629Z,25.54
2018-05-07T07:33:20.697Z,25.93
2018-05-07T07:34:20.785Z,25.63
2018-05-07T07:35:20.885Z,25.62
2018-05-07T07:36:20.958Z,26.51
2018-05-07T07:37:21.025Z,26.71
2018-05-07T07:38:21.105Z,25.63
2018-05-07T07:39:21.333Z,25.74
2018-05-07T07:40:21.274Z,25.52
2018-05-07T07:41:21.379Z,26.81
2018-05-07T07:42:21.441Z,25.72
2018-05-07T07:43:21.529Z,25.81
2018-05-07T07:44:21.657Z,26.10
2018-05-07T07:45:21.742Z,25.88
2018-05-07T07:46:21.834Z,26.76
2018-05-07T07:47:21.858Z,27.64
2018-05-07T07:48:22.026Z,27.64
2018-05-07T07:49:22.034Z,28.92
2018-05-07T07:50:22.134Z,27.48
2018-05-07T07:51:22.202Z,26.60
2018-05-07T07:52:22.340Z,27.20
2018-05-07T07:53:22.365Z,26.82
2018-05-07T07:54:22.574Z,26.15
2018-05-07T07:55:22.558Z,25.09
2018-05-07T07:56:22.634Z,24.49
2018-05-07T07:57:22.694Z,23.81
2018-05-07T07:58:22.782Z,23.71
2018-05-07T07:59:22.991Z,23.90
2018-05-07T08:00:22.999Z,24.86
2018-05-07T08:01:23.023Z,23.88
2018-05-07T08:02:23.107Z,25.84
2018-05-07T08:03:23.187Z,26.23
2018-05-07T08:04:23.452Z,24.85
2018-05-07T08:05:23.386Z,24.07
2018-05-07T08:06:23.435Z,24.46
2018-05-07T08:07:23.553Z,26.92
2018-05-07T08:08:23.615Z,24.48
2018-05-07T08:09:23.723Z,25.27
2018-05-07T08:10:23.807Z,24.19
2018-05-07T08:11:23.855Z,23.69
2018-05-07T08:12:23.980Z,25.38
2018-05-07T08:13:24.019Z,24.51
2018-05-07T08:14:24.371Z,23.34
2018-05-07T08:15:24.207Z,23.24
2018-05-07T08:16:24.271Z,22.86
2018-05-07T08:17:24.359Z,22.17
2018-05-07T08:18:24.478Z,23.03
2018-05-07T08:19:24.527Z,23.05
2018-05-07T08:20:24.656Z,22.46
2018-05-07T08:21:24.735Z,21.38
2018-05-07T08:22:24.784Z,22.36
2018-05-07T08:23:24.871Z,22.85
2018-05-07T08:24:24.944Z,23.93
2018-05-07T08:25:25.034Z,23.74
2018-05-07T08:26:25.104Z,23.45
2018-05-07T08:27:25.196Z,22.75
2018-05-07T08:28:25.269Z,22.67
2018-05-07T08:29:25.357Z,21.80
2018-05-07T08:30:25.518Z,24.25
2018-05-07T08:31:25.520Z,22.86
2018-05-07T08:32:25.600Z,23.74
2018-05-07T08:33:25.684Z,22.77
2018-05-07T08:34:25.764Z,23.94
2018-05-07T08:35:25.861Z,24.14
2018-05-07T08:36:26.021Z,22.75
2018-05-07T08:37:26.021Z,23.33
2018-05-07T08:38:26.104Z,22.95
2018-05-07T08:39:26.181Z,22.86
2018-05-07T08:40:26.376Z,21.38
2018-05-07T08:41:26.349Z,21.59
2018-05-07T08:42:26.429Z,20.90
2018-05-07T08:43:26.513Z,22.48
2018-05-07T08:44:26.592Z,21.70
2018-05-07T08:45:26.689Z,21.50
2018-05-07T08:46:26.769Z,21.30
2018-05-07T08:47:26.845Z,21.20
2018-05-07T08:48:26.925Z,22.48
2018-05-07T08:49:27.009Z,23.95
2018-05-07T08:50:27.109Z,21.99
2018-05-07T08:51:27.180Z,21.98
2018-05-07T08:52:27.253Z,20.70
2018-05-07T08:53:27.337Z,22.17
2018-05-07T08:54:27.425Z,21.49
2018-05-07T08:55:27.509Z,21.19
2018-05-07T08:56:27.593Z,21.29
2018-05-07T08:57:27.666Z,22.06
2018-05-07T08:58:27.749Z,22.45
2018-05-07T08:59:27.831Z,22.06
2018-05-07T09:00:27.917Z,21.66
2018-05-07T09:01:28.006Z,23.42
2018-05-07T09:02:28.077Z,22.72
2018-05-07T09:03:28.157Z,22.52
2018-05-07T09:04:28.241Z,23.41
2018-05-07T09:05:28.385Z,23.52
2018-05-07T09:06:28.402Z,22.53
2018-05-07T09:07:28.486Z,22.74
2018-05-07T09:08:28.570Z,22.64
2018-05-07T09:09:28.646Z,21.66
2018-05-07T09:10:28.736Z,21.84
2018-05-07T09:11:28.814Z,22.83
2018-05-07T09:12:28.890Z,23.03
2018-05-07T09:13:28.970Z,22.95
2018-05-07T09:14:29.050Z,22.16
2018-05-07T09:15:29.146Z,21.58
2018-05-07T09:16:29.216Z,21.09
2018-05-07T09:17:29.298Z,23.14
2018-05-07T09:18:29.374Z,22.67
2018-05-07T09:19:29.454Z,21.58
2018-05-07T09:20:29.546Z,20.40
2018-05-07T09:21:29.623Z,20.88
2018-05-07T09:22:29.698Z,22.23
2018-05-07T09:23:29.782Z,22.13
2018-05-07T09:24:29.858Z,22.12
2018-05-07T09:25:29.942Z,22.50
2018-05-07T09:26:30.025Z,22.81
2018-05-07T09:27:30.102Z,22.13
2018-05-07T09:28:30.179Z,22.53
2018-05-07T09:29:30.259Z,21.75
2018-05-07T09:30:30.347Z,21.26
2018-05-07T09:31:30.649Z,21.35
2018-05-07T09:32:30.499Z,20.97
2018-05-07T09:33:30.574Z,20.48
2018-05-07T09:34:30.654Z,20.09
2018-05-07T09:35:30.735Z,20.76
2018-05-07T09:36:30.823Z,21.74
2018-05-07T09:37:30.903Z,22.52
2018-05-07T09:38:30.974Z,22.52
2018-05-07T09:39:31.051Z,23.00
2018-05-07T09:40:31.131Z,21.92
2018-05-07T09:41:31.222Z,23.30
2018-05-07T09:42:31.291Z,23.39
2018-05-07T09:43:31.367Z,22.71
2018-05-07T09:44:31.448Z,22.71
2018-05-07T09:45:31.527Z,22.61
2018-05-07T09:46:31.611Z,21.53
2018-05-07T09:47:31.691Z,22.91
2018-05-07T09:48:31.762Z,23.00
2018-05-07T09:49:31.839Z,22.23
2018-05-07T09:50:31.919Z,22.22
2018-05-07T09:51:32.003Z,22.51
2018-05-07T09:52:32.084Z,21.73
2018-05-07T09:53:32.206Z,22.31
2018-05-07T09:54:32.233Z,22.89
2018-05-07T09:55:32.312Z,22.02
2018-05-07T09:56:32.392Z,22.11
2018-05-07T09:57:32.472Z,22.31
2018-05-07T09:58:32.543Z,23.09
2018-05-07T09:59:32.620Z,22.21
2018-05-07T10:00:32.696Z,22.02
2018-05-07T10:01:32.784Z,22.91
2018-05-07T10:02:32.890Z,22.80
2018-05-07T10:03:32.932Z,22.50
2018-05-07T10:04:33.008Z,22.02
2018-05-07T10:05:33.085Z,21.24
2018-05-07T10:06:33.176Z,21.03
2018-05-07T10:07:33.240Z,20.93
2018-05-07T10:08:33.316Z,21.42
2018-05-07T10:09:33.392Z,20.83
2018-05-07T10:10:33.475Z,22.39
2018-05-07T10:11:33.556Z,21.97
2018-05-07T10:12:33.631Z,23.83
2018-05-07T10:13:33.700Z,22.47
2018-05-07T10:14:33.776Z,23.75
2018-05-07T10:15:33.856Z,23.05
2018-05-07T10:16:33.936Z,22.48
2018-05-07T10:17:34.019Z,22.96
2018-05-07T10:18:34.084Z,22.77
2018-05-07T10:19:34.164Z,21.60
2018-05-07T10:20:34.240Z,21.71
2018-05-07T10:21:34.317Z,22.00
2018-05-07T10:22:34.626Z,22.20
2018-05-07T10:23:34.507Z,23.18
2018-05-07T10:24:34.540Z,22.66
2018-05-07T10:25:34.616Z,23.34
2018-05-07T10:26:34.692Z,23.44
2018-05-07T10:27:34.773Z,23.63
2018-05-07T10:28:34.848Z,23.54
2018-05-07T10:29:34.921Z,23.35
2018-05-07T10:30:34.993Z,23.44
2018-05-07T10:31:35.360Z,23.34
2018-05-07T10:32:35.257Z,23.44
2018-05-07T10:33:35.221Z,23.44
2018-05-07T10:34:35.304Z,22.74
2018-05-07T10:35:35.369Z,22.53
2018-05-07T10:36:35.449Z,22.83
2018-05-07T10:37:35.525Z,22.63
2018-05-07T10:38:35.603Z,24.10
2018-05-07T10:39:35.669Z,23.61
2018-05-07T10:40:35.745Z,22.74
2018-05-07T10:41:35.821Z,23.03
2018-05-07T10:42:35.903Z,22.73
2018-05-07T10:43:35.976Z,22.91
2018-05-07T10:44:36.041Z,23.01
2018-05-07T10:45:36.117Z,22.22
2018-05-07T10:46:36.197Z,22.60
2018-05-07T10:47:36.427Z,23.49
2018-05-07T10:48:36.341Z,21.25
2018-05-07T10:49:36.417Z,22.23
2018-05-07T10:50:36.489Z,21.64
2018-05-07T10:51:36.565Z,22.72
2018-05-07T10:52:36.645Z,23.89
2018-05-07T10:53:36.717Z,23.40
2018-05-07T10:54:36.785Z,23.40
2018-05-07T10:55:36.861Z,23.30
2018-05-07T10:56:36.934Z,23.30
2018-05-07T10:57:37.014Z,22.33
2018-05-07T10:58:37.086Z,23.40
2018-05-07T10:59:37.158Z,23.21
2018-05-07T11:00:37.225Z,21.55
2018-05-07T11:01:37.374Z,22.31
2018-05-07T11:02:37.381Z,22.41
2018-05-07T11:03:37.457Z,22.31
2018-05-07T11:04:37.523Z,23.79
2018-05-07T11:05:37.593Z,24.17
2018-05-07T11:06:37.677Z,24.17
2018-05-07T11:07:37.774Z,24.56
2018-05-07T11:08:37.822Z,24.67
2018-05-07T11:09:37.890Z,24.57
2018-05-07T11:10:37.965Z,22.72
2018-05-07T11:11:38.038Z,22.80
2018-05-07T11:12:38.126Z,22.12
2018-05-07T11:13:38.258Z,23.19
2018-05-07T11:14:38.258Z,23.47
2018-05-07T11:15:38.330Z,24.55
2018-05-07T11:16:38.406Z,25.81
2018-05-07T11:17:38.486Z,25.92
2018-05-07T11:18:38.566Z,23.78
2018-05-07T11:19:38.629Z,23.68
2018-05-07T11:20:38.698Z,23.68
2018-05-07T11:21:38.774Z,23.49
2018-05-07T11:22:38.854Z,23.08
2018-05-07T11:23:38.926Z,23.67
2018-05-07T11:24:38.995Z,24.06
2018-05-07T11:25:39.066Z,25.52
2018-05-07T11:26:39.139Z,25.91
2018-05-07T11:27:39.366Z,24.85
2018-05-07T11:28:39.287Z,23.58
2018-05-07T11:29:39.363Z,23.68
2018-05-07T11:30:39.435Z,24.56
2018-05-07T11:31:39.511Z,24.07
2018-05-07T11:32:39.591Z,23.88
2018-05-07T11:33:39.662Z,24.77
2018-05-07T11:34:39.727Z,24.57
2018-05-07T11:35:39.802Z,23.02
2018-05-07T11:36:39.875Z,22.73
2018-05-07T11:37:39.955Z,22.42
2018-05-07T11:38:40.031Z,23.01
2018-05-07T11:39:40.099Z,22.81
2018-05-07T11:40:40.171Z,23.39
2018-05-07T11:41:40.247Z,23.49
2018-05-07T11:42:40.343Z,23.99
2018-05-07T11:43:40.392Z,23.97
2018-05-07T11:44:40.463Z,23.68
2018-05-07T11:45:40.539Z,24.76
2018-05-07T11:46:40.613Z,25.42
2018-05-07T11:47:40.752Z,24.84
2018-05-07T11:48:40.768Z,24.46
2018-05-07T11:49:40.831Z,23.49
2018-05-07T11:50:40.911Z,23.77
2018-05-07T11:51:40.980Z,24.74
2018-05-07T11:52:41.060Z,25.71
2018-05-07T11:53:41.135Z,25.60
2018-05-07T11:54:41.200Z,26.50
2018-05-07T11:55:41.279Z,27.08
2018-05-07T11:56:41.348Z,25.71
2018-05-07T11:57:41.428Z,24.85
2018-05-07T11:58:41.503Z,25.63
2018-05-07T11:59:41.568Z,24.77
2018-05-07T12:00:41.644Z,24.87
2018-05-07T12:01:41.716Z,24.29
2018-05-07T12:02:41.816Z,24.68
2018-05-07T12:03:41.876Z,24.39
2018-05-07T12:04:41.941Z,23.80
2018-05-07T12:05:42.012Z,21.92
2018-05-07T12:06:42.087Z,22.90
2018-05-07T12:07:42.182Z,22.90
2018-05-07T12:08:42.232Z,23.39
2018-05-07T12:09:42.313Z,23.40
2018-05-07T12:10:42.380Z,24.57
2018-05-07T12:11:42.449Z,25.16
2018-05-07T12:12:42.544Z,22.83
2018-05-07T12:13:42.609Z,23.82
2018-05-07T12:14:42.672Z,22.73
2018-05-07T12:15:42.825Z,23.40
2018-05-07T12:16:42.821Z,24.28
2018-05-07T12:17:42.901Z,24.67
2018-05-07T12:18:42.972Z,24.37
2018-05-07T12:19:43.041Z,25.45
2018-05-07T12:20:43.122Z,23.30
2018-05-07T12:21:43.188Z,24.57
2018-05-07T12:22:43.267Z,23.80
2018-05-07T12:23:43.478Z,24.78
2018-05-07T12:24:43.413Z,23.02
2018-05-07T12:25:43.538Z,23.41
2018-05-07T12:26:43.557Z,23.32
2018-05-07T12:27:43.638Z,23.69
2018-05-07T12:28:43.709Z,23.89
2018-05-07T12:29:43.794Z,24.19
2018-05-07T12:30:43.849Z,24.78
2018-05-07T12:31:44.144Z,23.80
2018-05-07T12:32:43.998Z,23.41
2018-05-07T12:33:44.086Z,22.73
2018-05-07T12:34:44.145Z,23.52
2018-05-07T12:35:44.238Z,22.92
2018-05-07T12:36:44.298Z,24.29
2018-05-07T12:37:44.400Z,23.61
2018-05-07T12:38:44.445Z,22.81
2018-05-07T12:39:44.522Z,23.71
2018-05-07T12:40:44.590Z,23.61
2018-05-07T12:41:44.666Z,23.61
2018-05-07T12:42:44.738Z,23.43
2018-05-07T12:43:44.815Z,22.84
2018-05-07T12:44:44.890Z,23.73
2018-05-07T12:45:44.959Z,23.44
2018-05-07T12:46:45.036Z,22.36
2018-05-07T12:47:45.106Z,22.64
2018-05-07T12:48:45.194Z,23.23
2018-05-07T12:49:45.250Z,23.33
2018-05-07T12:50:45.326Z,23.43
2018-05-07T12:51:45.410Z,23.52
2018-05-07T12:52:45.572Z,22.34
2018-05-07T12:53:45.566Z,22.83